Milwaukee, Wisconsin
Traffic Map
Current Weather Conditions
Milwaukee, Wisconsin
Broken Clouds
Broken Clouds
76°
Feels Like: 76°
Wind Chill: 76° Ceiling: 25000
Heat Index: 76° Visibility: 8mi
Dew Point: 70° Wind: 7mph
Humidity: 82% Direction: 240° (WSW)
Pressure: 30.05in Gusts: 0mph
Raw Report DataKMKE 211352Z 24006KT 8SM BKN250 24/21 A3005 RMK AO2 SLP172 T02440211
Traffic Incident Summary
Active as of:
Severity:
Category:
InformationThere was an issue retrieving the traffic information for this location. Please try a different location or try again shortly.
Advertisements